Nearby METAR Reports

 

LEAL - Alicante/El Alte, Spain
Distance from station: SO 52km
Actualización: 24/05/2018 08:00
Few Clouds
Few Clouds
 Viento del ENE
Viento: ENE 20 km/h
Temperatura: 21°C
Rocío: 13°C
Humedad: 60%
Barómetro: 1014 hPa
Clouds: Few Clouds
Visibility: 10 km
Cloud details: Few Clouds 1829 m
2018/05/24 06:00 LEAL 240600Z 06011KT 9999 FEW060CB 21/13 Q1014 NOSIG
LEVC - Valencia (civ/Mi, Spain
Distance from station: NNO 107km
Actualización: 24/05/2018 08:00
Few Clouds
Few Clouds
 Viento del N
Viento: N 7 km/h
Temperatura: 19°C
Rocío: 11°C
Humedad: 60%
Barómetro: 1017 hPa
Clouds: Few Clouds
Visibility: 10 km
Cloud details: Few Clouds 914 m
2018/05/24 06:00 LEVC 240600Z 01004KT 330V050 9999 FEW030 19/11 Q1017 NOSIG
 
LELC - San Javier(Mil/C, Spain
Distance from station: SO 109km
Actualización: 24/05/2018 08:00
Despejado
Despejado
 Viento del NNE
Viento: NNE 37 km/h
Temperatura: 20°C
Rocío: 16°C
Humedad: 78%
Barómetro: 1013 hPa
Resumen: Despejado
Visibility: greater than 10 km
2018/05/24 06:00 LELC 240600Z 03020KT CAVOK 20/16 Q1013 NOSIG
LERI - Alcantarilla(Sp-, Spain
Distance from station: SO 120km
Actualización: 24/05/2018 08:00
Few Clouds
Few Clouds
 Viento del varies
Viento: varies 4 km/h
Temperatura: 18°C
Rocío: 8°C
Humedad: 52%
Barómetro: 1015 hPa
Clouds: Few Clouds
Visibility: 10 km
Cloud details: Few Clouds 1067 m
2018/05/24 06:00 LERI 240600Z VRB02KT 9999 FEW035 18/08 Q1015 NOSIG
 
LEIB - Ibiza/Es Codola, Spain
Distance from station: ENE 131km
Actualización: 24/05/2018 08:00
Light drizzle, Few clouds
Light drizzle, Few clouds
 Viento del NE
Viento: NE 17 km/h
Temperatura: 19°C
Rocío: 17°C
Humedad: 88%
Barómetro: 1016 hPa
Resumen: Light Drizzle
Clouds: Few Clouds
Visibility: 10 km
Cloud details: Few Clouds 1372 m
2018/05/24 06:00 LEIB 240600Z 05009KT 9999 -DZ FEW045 19/17 Q1016 NOSIG
LEAB - Albacete (civ/Mi, Spain
Distance from station: ONO 157km
Actualización: 24/05/2018 08:00
Despejado
Despejado
 Viento del SE
Viento: SE 11 km/h
Temperatura: 12°C
Rocío: 9°C
Humedad: 82%
Barómetro: 1017 hPa
Resumen: Despejado
Visibility: greater than 10 km
2018/05/24 06:00 LEAB 240600Z 14006KT 110V170 CAVOK 12/09 Q1017 NOSIG